sensor_id;sensor_type;location;lat;lon;timestamp;P1;durP1;ratioP1;P2;durP2;ratioP2
48627;SDS011;34424;52.234;6.500;2022-09-25T00:01:13;7.78;;;4.38;;
48627;SDS011;34424;52.234;6.500;2022-09-25T00:06:18;8.10;;;4.25;;
48627;SDS011;34424;52.234;6.500;2022-09-25T00:11:22;6.13;;;3.88;;
48627;SDS011;34424;52.234;6.500;2022-09-25T00:16:26;5.25;;;3.60;;
48627;SDS011;34424;52.234;6.500;2022-09-25T00:21:29;9.32;;;4.15;;
48627;SDS011;34424;52.234;6.500;2022-09-25T00:26:34;6.57;;;3.70;;
48627;SDS011;34424;52.234;6.500;2022-09-25T00:31:37;6.10;;;3.70;;
48627;SDS011;34424;52.234;6.500;2022-09-25T00:36:39;7.63;;;3.80;;
48627;SDS011;34424;52.234;6.500;2022-09-25T00:41:43;10.98;;;4.90;;
48627;SDS011;34424;52.234;6.500;2022-09-25T00:46:45;6.40;;;3.88;;
48627;SDS011;34424;52.234;6.500;2022-09-25T00:51:49;6.03;;;3.80;;
48627;SDS011;34424;52.234;6.500;2022-09-25T00:56:57;8.32;;;4.30;;
48627;SDS011;34424;52.234;6.500;2022-09-25T01:02:01;7.43;;;3.97;;
48627;SDS011;34424;52.234;6.500;2022-09-25T01:07:04;8.70;;;5.27;;
48627;SDS011;34424;52.234;6.500;2022-09-25T01:12:10;9.90;;;5.30;;
48627;SDS011;34424;52.234;6.500;2022-09-25T01:17:14;9.10;;;5.30;;
48627;SDS011;34424;52.234;6.500;2022-09-25T01:22:20;9.88;;;5.82;;
48627;SDS011;34424;52.234;6.500;2022-09-25T01:27:32;10.95;;;5.45;;
48627;SDS011;34424;52.234;6.500;2022-09-25T01:32:41;7.43;;;5.60;;
48627;SDS011;34424;52.234;6.500;2022-09-25T01:37:45;13.80;;;7.03;;
48627;SDS011;34424;52.234;6.500;2022-09-25T01:42:51;14.63;;;7.93;;
48627;SDS011;34424;52.234;6.500;2022-09-25T01:47:55;10.73;;;6.85;;
48627;SDS011;34424;52.234;6.500;2022-09-25T01:52:59;12.38;;;6.63;;
48627;SDS011;34424;52.234;6.500;2022-09-25T01:58:02;10.90;;;7.88;;
48627;SDS011;34424;52.234;6.500;2022-09-25T02:03:10;9.73;;;6.55;;
48627;SDS011;34424;52.234;6.500;2022-09-25T02:08:14;12.75;;;7.53;;
48627;SDS011;34424;52.234;6.500;2022-09-25T02:13:19;14.48;;;8.35;;
48627;SDS011;34424;52.234;6.500;2022-09-25T02:18:24;11.82;;;7.10;;
48627;SDS011;34424;52.234;6.500;2022-09-25T02:23:47;15.35;;;9.65;;
48627;SDS011;34424;52.234;6.500;2022-09-25T02:28:51;14.85;;;8.80;;
48627;SDS011;34424;52.234;6.500;2022-09-25T02:33:56;10.15;;;7.45;;
48627;SDS011;34424;52.234;6.500;2022-09-25T02:38:58;15.90;;;7.05;;
48627;SDS011;34424;52.234;6.500;2022-09-25T02:44:04;9.85;;;6.57;;
48627;SDS011;34424;52.234;6.500;2022-09-25T02:49:13;12.57;;;6.85;;
48627;SDS011;34424;52.234;6.500;2022-09-25T02:54:20;8.55;;;6.55;;
48627;SDS011;34424;52.234;6.500;2022-09-25T02:59:26;9.60;;;6.32;;
48627;SDS011;34424;52.234;6.500;2022-09-25T03:04:31;9.43;;;6.43;;
48627;SDS011;34424;52.234;6.500;2022-09-25T03:09:38;9.05;;;6.65;;
48627;SDS011;34424;52.234;6.500;2022-09-25T03:14:42;10.50;;;7.13;;
48627;SDS011;34424;52.234;6.500;2022-09-25T03:19:45;12.45;;;7.68;;
48627;SDS011;34424;52.234;6.500;2022-09-25T03:24:48;8.55;;;7.35;;
48627;SDS011;34424;52.234;6.500;2022-09-25T03:29:51;9.25;;;7.15;;
48627;SDS011;34424;52.234;6.500;2022-09-25T03:34:56;10.68;;;7.75;;
48627;SDS011;34424;52.234;6.500;2022-09-25T03:45:01;12.07;;;7.47;;
48627;SDS011;34424;52.234;6.500;2022-09-25T03:50:06;21.98;;;9.35;;
48627;SDS011;34424;52.234;6.500;2022-09-25T03:55:09;13.82;;;8.40;;
48627;SDS011;34424;52.234;6.500;2022-09-25T04:00:12;16.50;;;9.18;;
48627;SDS011;34424;52.234;6.500;2022-09-25T04:05:18;10.73;;;7.70;;
48627;SDS011;34424;52.234;6.500;2022-09-25T04:10:21;9.18;;;6.75;;
48627;SDS011;34424;52.234;6.500;2022-09-25T04:15:23;10.68;;;7.28;;
48627;SDS011;34424;52.234;6.500;2022-09-25T04:20:29;10.75;;;6.85;;
48627;SDS011;34424;52.234;6.500;2022-09-25T04:25:31;8.68;;;6.78;;
48627;SDS011;34424;52.234;6.500;2022-09-25T04:30:34;9.90;;;8.48;;
48627;SDS011;34424;52.234;6.500;2022-09-25T04:35:38;20.20;;;9.00;;
48627;SDS011;34424;52.234;6.500;2022-09-25T04:40:41;13.70;;;10.00;;
48627;SDS011;34424;52.234;6.500;2022-09-25T04:45:47;13.43;;;9.00;;
48627;SDS011;34424;52.234;6.500;2022-09-25T04:50:53;8.70;;;7.00;;
48627;SDS011;34424;52.234;6.500;2022-09-25T04:55:59;8.90;;;7.15;;
48627;SDS011;34424;52.234;6.500;2022-09-25T05:01:01;10.98;;;7.43;;
48627;SDS011;34424;52.234;6.500;2022-09-25T05:06:07;9.30;;;7.57;;
48627;SDS011;34424;52.234;6.500;2022-09-25T05:11:09;9.65;;;7.07;;
48627;SDS011;34424;52.234;6.500;2022-09-25T05:16:12;9.85;;;7.25;;
48627;SDS011;34424;52.234;6.500;2022-09-25T05:21:16;9.38;;;8.15;;
48627;SDS011;34424;52.234;6.500;2022-09-25T05:31:22;10.17;;;8.80;;
48627;SDS011;34424;52.234;6.500;2022-09-25T05:36:26;8.73;;;7.65;;
48627;SDS011;34424;52.234;6.500;2022-09-25T05:41:29;13.63;;;9.85;;
48627;SDS011;34424;52.234;6.500;2022-09-25T05:46:31;19.00;;;12.82;;
48627;SDS011;34424;52.234;6.500;2022-09-25T05:51:35;19.13;;;11.90;;
48627;SDS011;34424;52.234;6.500;2022-09-25T06:01:40;21.77;;;11.88;;
48627;SDS011;34424;52.234;6.500;2022-09-25T06:06:44;12.60;;;11.07;;
48627;SDS011;34424;52.234;6.500;2022-09-25T06:11:46;11.25;;;8.98;;
48627;SDS011;34424;52.234;6.500;2022-09-25T06:16:49;14.68;;;10.48;;
48627;SDS011;34424;52.234;6.500;2022-09-25T06:21:52;14.80;;;10.63;;
48627;SDS011;34424;52.234;6.500;2022-09-25T06:31:58;12.52;;;10.30;;
48627;SDS011;34424;52.234;6.500;2022-09-25T06:42:05;7.55;;;6.13;;
48627;SDS011;34424;52.234;6.500;2022-09-25T06:47:08;7.47;;;4.38;;
48627;SDS011;34424;52.234;6.500;2022-09-25T06:52:19;5.57;;;3.42;;
48627;SDS011;34424;52.234;6.500;2022-09-25T06:57:23;4.67;;;2.13;;
48627;SDS011;34424;52.234;6.500;2022-09-25T07:02:25;4.45;;;2.40;;
48627;SDS011;34424;52.234;6.500;2022-09-25T07:07:45;5.07;;;3.58;;
48627;SDS011;34424;52.234;6.500;2022-09-25T07:12:50;6.50;;;3.67;;
48627;SDS011;34424;52.234;6.500;2022-09-25T07:17:52;4.82;;;2.90;;
48627;SDS011;34424;52.234;6.500;2022-09-25T07:22:57;6.47;;;2.60;;
48627;SDS011;34424;52.234;6.500;2022-09-25T07:28:02;5.07;;;2.42;;
48627;SDS011;34424;52.234;6.500;2022-09-25T07:33:04;5.38;;;1.88;;
48627;SDS011;34424;52.234;6.500;2022-09-25T07:38:07;4.85;;;1.92;;
48627;SDS011;34424;52.234;6.500;2022-09-25T07:43:10;4.85;;;1.67;;
48627;SDS011;34424;52.234;6.500;2022-09-25T07:48:13;5.15;;;1.38;;
48627;SDS011;34424;52.234;6.500;2022-09-25T07:53:16;5.80;;;1.48;;
48627;SDS011;34424;52.234;6.500;2022-09-25T07:58:20;4.30;;;1.17;;
48627;SDS011;34424;52.234;6.500;2022-09-25T08:03:23;3.03;;;1.33;;
48627;SDS011;34424;52.234;6.500;2022-09-25T08:08:25;4.57;;;1.30;;
48627;SDS011;34424;52.234;6.500;2022-09-25T08:18:32;5.30;;;1.23;;
48627;SDS011;34424;52.234;6.500;2022-09-25T08:23:36;2.22;;;1.30;;
48627;SDS011;34424;52.234;6.500;2022-09-25T08:28:38;3.25;;;1.35;;
48627;SDS011;34424;52.234;6.500;2022-09-25T08:33:44;4.50;;;1.50;;
48627;SDS011;34424;52.234;6.500;2022-09-25T08:38:47;4.18;;;1.20;;
48627;SDS011;34424;52.234;6.500;2022-09-25T08:43:51;4.78;;;1.20;;
48627;SDS011;34424;52.234;6.500;2022-09-25T08:48:56;1.67;;;1.10;;
48627;SDS011;34424;52.234;6.500;2022-09-25T08:54:06;1.92;;;1.13;;
48627;SDS011;34424;52.234;6.500;2022-09-25T08:59:14;2.53;;;1.20;;
48627;SDS011;34424;52.234;6.500;2022-09-25T09:04:25;4.03;;;1.77;;
48627;SDS011;34424;52.234;6.500;2022-09-25T09:09:33;3.17;;;1.20;;
48627;SDS011;34424;52.234;6.500;2022-09-25T09:14:38;2.30;;;0.98;;
48627;SDS011;34424;52.234;6.500;2022-09-25T09:19:42;5.50;;;1.17;;
48627;SDS011;34424;52.234;6.500;2022-09-25T09:24:52;4.07;;;1.35;;
48627;SDS011;34424;52.234;6.500;2022-09-25T09:29:57;4.45;;;1.17;;
48627;SDS011;34424;52.234;6.500;2022-09-25T09:35:12;3.30;;;0.90;;
48627;SDS011;34424;52.234;6.500;2022-09-25T09:40:20;2.20;;;0.60;;
48627;SDS011;34424;52.234;6.500;2022-09-25T09:45:26;4.60;;;1.13;;
48627;SDS011;34424;52.234;6.500;2022-09-25T09:50:36;3.78;;;0.85;;
48627;SDS011;34424;52.234;6.500;2022-09-25T09:55:45;1.75;;;0.70;;
48627;SDS011;34424;52.234;6.500;2022-09-25T10:00:48;3.10;;;0.90;;
48627;SDS011;34424;52.234;6.500;2022-09-25T10:05:53;3.80;;;0.80;;
48627;SDS011;34424;52.234;6.500;2022-09-25T10:10:57;3.80;;;0.98;;
48627;SDS011;34424;52.234;6.500;2022-09-25T10:16:01;1.25;;;0.90;;
48627;SDS011;34424;52.234;6.500;2022-09-25T10:21:08;6.80;;;1.60;;
48627;SDS011;34424;52.234;6.500;2022-09-25T10:26:21;2.90;;;0.90;;
48627;SDS011;34424;52.234;6.500;2022-09-25T10:31:26;1.43;;;0.70;;
48627;SDS011;34424;52.234;6.500;2022-09-25T10:36:40;3.25;;;0.73;;
48627;SDS011;34424;52.234;6.500;2022-09-25T10:46:46;3.85;;;1.05;;
48627;SDS011;34424;52.234;6.500;2022-09-25T10:52:07;2.83;;;0.90;;
48627;SDS011;34424;52.234;6.500;2022-09-25T10:57:15;4.75;;;1.25;;
48627;SDS011;34424;52.234;6.500;2022-09-25T11:02:20;2.22;;;0.63;;
48627;SDS011;34424;52.234;6.500;2022-09-25T11:07:29;5.53;;;1.05;;
48627;SDS011;34424;52.234;6.500;2022-09-25T11:12:34;2.55;;;0.73;;
48627;SDS011;34424;52.234;6.500;2022-09-25T11:17:38;1.08;;;0.75;;
48627;SDS011;34424;52.234;6.500;2022-09-25T11:22:43;1.25;;;0.60;;
48627;SDS011;34424;52.234;6.500;2022-09-25T11:27:47;2.78;;;0.63;;
48627;SDS011;34424;52.234;6.500;2022-09-25T11:32:57;3.30;;;1.00;;
48627;SDS011;34424;52.234;6.500;2022-09-25T11:38:16;1.65;;;0.70;;
48627;SDS011;34424;52.234;6.500;2022-09-25T11:43:48;2.28;;;0.60;;
48627;SDS011;34424;52.234;6.500;2022-09-25T11:49:00;2.25;;;0.90;;
48627;SDS011;34424;52.234;6.500;2022-09-25T11:54:14;3.40;;;0.77;;
48627;SDS011;34424;52.234;6.500;2022-09-25T11:59:38;2.88;;;0.88;;
48627;SDS011;34424;52.234;6.500;2022-09-25T12:10:12;2.70;;;0.60;;
48627;SDS011;34424;52.234;6.500;2022-09-25T12:15:20;3.05;;;1.10;;
48627;SDS011;34424;52.234;6.500;2022-09-25T12:20:26;1.05;;;0.70;;
48627;SDS011;34424;52.234;6.500;2022-09-25T12:25:36;4.13;;;1.05;;
48627;SDS011;34424;52.234;6.500;2022-09-25T12:30:44;1.20;;;0.88;;
48627;SDS011;34424;52.234;6.500;2022-09-25T12:35:49;2.13;;;0.80;;
48627;SDS011;34424;52.234;6.500;2022-09-25T12:40:56;2.00;;;0.80;;
48627;SDS011;34424;52.234;6.500;2022-09-25T12:46:02;2.03;;;0.80;;
48627;SDS011;34424;52.234;6.500;2022-09-25T12:51:11;3.28;;;1.00;;
48627;SDS011;34424;52.234;6.500;2022-09-25T12:56:17;2.45;;;0.80;;
48627;SDS011;34424;52.234;6.500;2022-09-25T13:01:23;1.23;;;0.52;;
48627;SDS011;34424;52.234;6.500;2022-09-25T13:06:28;1.05;;;0.52;;
48627;SDS011;34424;52.234;6.500;2022-09-25T13:11:36;2.08;;;0.60;;
48627;SDS011;34424;52.234;6.500;2022-09-25T13:16:41;1.35;;;0.60;;
48627;SDS011;34424;52.234;6.500;2022-09-25T13:21:47;2.20;;;0.90;;
48627;SDS011;34424;52.234;6.500;2022-09-25T13:26:51;2.45;;;0.80;;
48627;SDS011;34424;52.234;6.500;2022-09-25T13:32:01;2.85;;;0.47;;
48627;SDS011;34424;52.234;6.500;2022-09-25T13:37:03;0.82;;;0.52;;
48627;SDS011;34424;52.234;6.500;2022-09-25T13:42:11;2.50;;;0.70;;
48627;SDS011;34424;52.234;6.500;2022-09-25T13:47:41;2.38;;;0.52;;
48627;SDS011;34424;52.234;6.500;2022-09-25T13:52:51;1.13;;;0.63;;
48627;SDS011;34424;52.234;6.500;2022-09-25T13:58:17;1.48;;;0.65;;
48627;SDS011;34424;52.234;6.500;2022-09-25T14:03:27;1.13;;;0.65;;
48627;SDS011;34424;52.234;6.500;2022-09-25T14:08:32;1.23;;;0.60;;
48627;SDS011;34424;52.234;6.500;2022-09-25T14:13:36;1.02;;;0.70;;
48627;SDS011;34424;52.234;6.500;2022-09-25T14:18:43;1.35;;;0.65;;
48627;SDS011;34424;52.234;6.500;2022-09-25T14:23:55;1.30;;;0.77;;
48627;SDS011;34424;52.234;6.500;2022-09-25T14:28:59;0.68;;;0.40;;
48627;SDS011;34424;52.234;6.500;2022-09-25T14:39:36;1.50;;;0.50;;
48627;SDS011;34424;52.234;6.500;2022-09-25T14:44:51;1.27;;;0.52;;
48627;SDS011;34424;52.234;6.500;2022-09-25T14:49:57;2.90;;;0.90;;
48627;SDS011;34424;52.234;6.500;2022-09-25T14:55:00;4.45;;;0.60;;
48627;SDS011;34424;52.234;6.500;2022-09-25T15:00:06;1.67;;;0.70;;
48627;SDS011;34424;52.234;6.500;2022-09-25T15:05:23;0.90;;;0.50;;
48627;SDS011;34424;52.234;6.500;2022-09-25T15:10:30;2.35;;;0.40;;
48627;SDS011;34424;52.234;6.500;2022-09-25T15:15:34;1.20;;;0.80;;
48627;SDS011;34424;52.234;6.500;2022-09-25T15:20:37;1.75;;;0.60;;
48627;SDS011;34424;52.234;6.500;2022-09-25T15:25:46;3.78;;;0.93;;
48627;SDS011;34424;52.234;6.500;2022-09-25T15:30:54;1.27;;;0.80;;
48627;SDS011;34424;52.234;6.500;2022-09-25T15:35:58;2.78;;;0.80;;
48627;SDS011;34424;52.234;6.500;2022-09-25T15:41:01;1.50;;;1.08;;
48627;SDS011;34424;52.234;6.500;2022-09-25T15:51:23;1.13;;;0.60;;
48627;SDS011;34424;52.234;6.500;2022-09-25T15:56:28;1.55;;;0.70;;
48627;SDS011;34424;52.234;6.500;2022-09-25T16:01:32;1.13;;;0.63;;
48627;SDS011;34424;52.234;6.500;2022-09-25T16:06:54;0.40;;;0.40;;
48627;SDS011;34424;52.234;6.500;2022-09-25T16:17:21;3.03;;;0.73;;
48627;SDS011;34424;52.234;6.500;2022-09-25T16:22:25;5.20;;;4.03;;
48627;SDS011;34424;52.234;6.500;2022-09-25T16:27:30;1.80;;;1.00;;
48627;SDS011;34424;52.234;6.500;2022-09-25T16:32:34;2.08;;;1.17;;
48627;SDS011;34424;52.234;6.500;2022-09-25T16:37:37;3.63;;;1.17;;
48627;SDS011;34424;52.234;6.500;2022-09-25T16:42:40;2.75;;;1.40;;
48627;SDS011;34424;52.234;6.500;2022-09-25T16:47:42;1.80;;;1.30;;
48627;SDS011;34424;52.234;6.500;2022-09-25T16:52:51;2.83;;;2.63;;
48627;SDS011;34424;52.234;6.500;2022-09-25T16:57:54;2.35;;;1.67;;
48627;SDS011;34424;52.234;6.500;2022-09-25T17:02:56;3.40;;;2.00;;
48627;SDS011;34424;52.234;6.500;2022-09-25T17:08:10;6.30;;;3.00;;
48627;SDS011;34424;52.234;6.500;2022-09-25T17:13:15;2.25;;;2.05;;
48627;SDS011;34424;52.234;6.500;2022-09-25T17:18:18;2.00;;;1.70;;
48627;SDS011;34424;52.234;6.500;2022-09-25T17:23:23;3.33;;;2.28;;
48627;SDS011;34424;52.234;6.500;2022-09-25T17:28:26;5.47;;;3.08;;
48627;SDS011;34424;52.234;6.500;2022-09-25T17:33:29;5.77;;;2.70;;
48627;SDS011;34424;52.234;6.500;2022-09-25T17:38:34;3.65;;;2.90;;
48627;SDS011;34424;52.234;6.500;2022-09-25T17:43:36;3.17;;;1.70;;
48627;SDS011;34424;52.234;6.500;2022-09-25T17:48:41;1.90;;;1.70;;
48627;SDS011;34424;52.234;6.500;2022-09-25T17:53:45;2.90;;;1.63;;
48627;SDS011;34424;52.234;6.500;2022-09-25T17:58:49;4.68;;;2.17;;
48627;SDS011;34424;52.234;6.500;2022-09-25T18:03:57;4.68;;;2.53;;
48627;SDS011;34424;52.234;6.500;2022-09-25T18:09:01;7.68;;;5.60;;
48627;SDS011;34424;52.234;6.500;2022-09-25T18:14:04;4.18;;;3.10;;
48627;SDS011;34424;52.234;6.500;2022-09-25T18:19:09;5.27;;;3.87;;
48627;SDS011;34424;52.234;6.500;2022-09-25T18:24:33;5.50;;;4.10;;
48627;SDS011;34424;52.234;6.500;2022-09-25T18:29:36;5.43;;;3.05;;
48627;SDS011;34424;52.234;6.500;2022-09-25T18:34:38;2.47;;;2.20;;
48627;SDS011;34424;52.234;6.500;2022-09-25T18:39:43;3.92;;;3.58;;
48627;SDS011;34424;52.234;6.500;2022-09-25T18:44:49;3.95;;;3.28;;
48627;SDS011;34424;52.234;6.500;2022-09-25T18:49:51;3.17;;;2.70;;
48627;SDS011;34424;52.234;6.500;2022-09-25T18:54:55;4.13;;;2.50;;
48627;SDS011;34424;52.234;6.500;2022-09-25T18:59:57;2.58;;;2.13;;
48627;SDS011;34424;52.234;6.500;2022-09-25T19:05:01;4.28;;;2.90;;
48627;SDS011;34424;52.234;6.500;2022-09-25T19:10:05;6.03;;;4.78;;
48627;SDS011;34424;52.234;6.500;2022-09-25T19:15:09;6.95;;;4.20;;
48627;SDS011;34424;52.234;6.500;2022-09-25T19:20:12;5.10;;;3.80;;
48627;SDS011;34424;52.234;6.500;2022-09-25T19:25:16;4.90;;;4.35;;
48627;SDS011;34424;52.234;6.500;2022-09-25T19:30:22;5.90;;;4.88;;
48627;SDS011;34424;52.234;6.500;2022-09-25T19:35:25;7.10;;;5.20;;
48627;SDS011;34424;52.234;6.500;2022-09-25T19:40:28;7.45;;;5.10;;
48627;SDS011;34424;52.234;6.500;2022-09-25T19:45:37;8.00;;;6.30;;
48627;SDS011;34424;52.234;6.500;2022-09-25T19:50:39;11.70;;;10.43;;
48627;SDS011;34424;52.234;6.500;2022-09-25T19:55:43;6.22;;;5.38;;
48627;SDS011;34424;52.234;6.500;2022-09-25T20:00:50;10.70;;;4.75;;
48627;SDS011;34424;52.234;6.500;2022-09-25T20:05:53;8.23;;;6.35;;
48627;SDS011;34424;52.234;6.500;2022-09-25T20:10:57;8.45;;;6.90;;
48627;SDS011;34424;52.234;6.500;2022-09-25T20:16:05;8.85;;;6.55;;
48627;SDS011;34424;52.234;6.500;2022-09-25T20:21:08;5.57;;;5.07;;
48627;SDS011;34424;52.234;6.500;2022-09-25T20:26:13;8.07;;;7.35;;
48627;SDS011;34424;52.234;6.500;2022-09-25T20:31:15;5.95;;;5.45;;
48627;SDS011;34424;52.234;6.500;2022-09-25T20:36:18;5.43;;;4.93;;
48627;SDS011;34424;52.234;6.500;2022-09-25T20:41:22;7.18;;;6.20;;
48627;SDS011;34424;52.234;6.500;2022-09-25T20:46:25;6.10;;;5.53;;
48627;SDS011;34424;52.234;6.500;2022-09-25T20:51:28;7.90;;;5.90;;
48627;SDS011;34424;52.234;6.500;2022-09-25T20:56:32;8.38;;;6.53;;
48627;SDS011;34424;52.234;6.500;2022-09-25T21:01:35;10.32;;;7.82;;
48627;SDS011;34424;52.234;6.500;2022-09-25T21:06:38;13.67;;;8.27;;
48627;SDS011;34424;52.234;6.500;2022-09-25T21:11:42;9.70;;;7.22;;
48627;SDS011;34424;52.234;6.500;2022-09-25T21:16:45;13.10;;;9.30;;
48627;SDS011;34424;52.234;6.500;2022-09-25T21:21:47;9.98;;;7.70;;
48627;SDS011;34424;52.234;6.500;2022-09-25T21:26:51;8.13;;;5.97;;
48627;SDS011;34424;52.234;6.500;2022-09-25T21:31:54;11.15;;;6.38;;
48627;SDS011;34424;52.234;6.500;2022-09-25T21:36:57;6.95;;;5.03;;
48627;SDS011;34424;52.234;6.500;2022-09-25T21:42:00;6.25;;;5.10;;
48627;SDS011;34424;52.234;6.500;2022-09-25T21:47:04;7.82;;;5.15;;
48627;SDS011;34424;52.234;6.500;2022-09-25T21:52:07;4.40;;;4.00;;
48627;SDS011;34424;52.234;6.500;2022-09-25T21:57:11;4.70;;;3.90;;
48627;SDS011;34424;52.234;6.500;2022-09-25T22:02:13;5.55;;;3.78;;
48627;SDS011;34424;52.234;6.500;2022-09-25T22:07:15;7.10;;;4.05;;
48627;SDS011;34424;52.234;6.500;2022-09-25T22:12:19;4.60;;;4.15;;
48627;SDS011;34424;52.234;6.500;2022-09-25T22:17:21;4.05;;;3.40;;
48627;SDS011;34424;52.234;6.500;2022-09-25T22:22:24;5.05;;;3.85;;
48627;SDS011;34424;52.234;6.500;2022-09-25T22:27:27;6.10;;;3.97;;
48627;SDS011;34424;52.234;6.500;2022-09-25T22:32:30;4.53;;;3.70;;
48627;SDS011;34424;52.234;6.500;2022-09-25T22:37:32;4.35;;;3.72;;
48627;SDS011;34424;52.234;6.500;2022-09-25T22:42:36;4.50;;;4.10;;
48627;SDS011;34424;52.234;6.500;2022-09-25T22:47:38;4.93;;;4.03;;
48627;SDS011;34424;52.234;6.500;2022-09-25T22:52:41;4.10;;;3.55;;
48627;SDS011;34424;52.234;6.500;2022-09-25T22:57:44;5.68;;;3.90;;
48627;SDS011;34424;52.234;6.500;2022-09-25T23:02:47;5.57;;;3.65;;
48627;SDS011;34424;52.234;6.500;2022-09-25T23:07:49;8.85;;;4.05;;
48627;SDS011;34424;52.234;6.500;2022-09-25T23:12:53;3.90;;;3.53;;
48627;SDS011;34424;52.234;6.500;2022-09-25T23:17:55;4.50;;;3.80;;
48627;SDS011;34424;52.234;6.500;2022-09-25T23:22:58;4.55;;;4.15;;
48627;SDS011;34424;52.234;6.500;2022-09-25T23:28:04;6.22;;;4.57;;
48627;SDS011;34424;52.234;6.500;2022-09-25T23:33:07;7.78;;;5.15;;
48627;SDS011;34424;52.234;6.500;2022-09-25T23:38:11;9.00;;;4.82;;
48627;SDS011;34424;52.234;6.500;2022-09-25T23:43:14;5.25;;;4.75;;
48627;SDS011;34424;52.234;6.500;2022-09-25T23:48:18;4.80;;;4.30;;
48627;SDS011;34424;52.234;6.500;2022-09-25T23:53:20;6.75;;;4.88;;
48627;SDS011;34424;52.234;6.500;2022-09-25T23:58:24;7.20;;;5.60;;
